首页
METAR-TAF:

METAR-TAF

机场 :

西雅圖-塔科馬國際機場

西雅圖 / 塔科马, 华盛顿, 美国

纬度: 47-26-41N, 经度: 122-18-49W, 海拔: 130米

当前天气观测

该预报发布于49分钟前的18:53 UTC
风速8节,风向南转南东
温度 14°C
湿度 58%
气压 1017 hPa
能見度: 16.1公里
少量云层高于10000英尺
多云层高于14000英尺
阴天层高于21000英尺

METAR: KSEA 151853Z 16008KT 10SM FEW100 BKN140 OVC210 14/06 A3002 RMK AO2 SLP172 T01390061

时间: 12:42 (19:42 UTC)

预报

该预报发布于2小时和11分钟前的17:31 UTC
预报有效从15日的 18点(UTC)到 16日的 24点(UTC)
风速7节,风向
能見度: 10公里
多云层高于12000英尺
阴天层高于20000英尺
从 16日的 0000点(UTC)
风速10节,风向
能見度: 10公里
阴天层高于4500英尺
附近有阵雨
从 16日的 0500点(UTC)
风速10节,风向东南
能見度: 10公里
阴天层高于4000英尺
小雨
从 16日的 1900点(UTC)
风速8节,风向东南
能見度: 10公里
散云层高于2000英尺
阴天层高于3000英尺
附近有阵雨

TAF: KSEA 151731Z 1518/1624 19007KT P6SM BKN120 OVC200 FM160000 18010KT P6SM VCSH OVC045 FM160500 13010KT P6SM -RA OVC040 FM161900 14008KT P6SM VCSH SCT020 OVC030

超过4000个机场的气象观测和天气预报(METAR&TAF报告)。

可查询的气象台以黄色和红色小点在地图上表示。

将鼠标移到小点上方,可查看气象台名称。

然后点击查看天气观测和预报。

如需切换地图:点击带黑十字的绿色按钮放大地图;点击带横线的绿色按钮缩小地图;或者点击绿色箭头查看邻近地区的地图。


METAR-TAF: